Hakon Mosby — LJIT — position and weather

sailwx.info

Track history (hours):
 
Tides and Currents Weather Stations Pressure Air Temp Water Temp Dewpoint Dewpoint Depression Visibility Wind Speed Wind Dir Waves Ship Positions

Oceanographic research ship Hakon Mosby (Norway)

Detailed information on ship capabilities available from University of Delaware's Ocean Information Center and ARCUS's ALIAS (Arctic Logistics Information and Support) project.

Last reported at 2020-Jul-06 18:38 UTC. Time now 2020-Jul-07 15:05 UTC.
Position N 71°01' E 017°04'.

Type: Fishing. MMSI: 258244000.

Date/timePositionNaut miles runAvg speedWind from/ knotsBaromVisibWave heightAir tempDewpointWater temp
2020-Jul-06 18:38N 71°01' E 017°04'54 2.0
2020-Jul-05 16:00N 70°08' E 016°30'5 9.8
2020-Jul-05 15:30N 70°04' E 016°36'27 9.0
2020-Jul-05 12:30N 69°37' E 016°48'2010.0
2020-Jul-05 10:30N 69°39' E 015°50'52 9.9
2020-Jul-05 05:15N 69°44' E 013°22'30 2.7
2020-Jul-04 18:04N 69°20' E 012°30'55 9.9
2020-Jul-04 12:30N 68°27' E 013°11'10 9.7
2020-Jul-04 11:30N 68°17' E 013°13'65 7.7
2020-Jul-04 03:00N 67°17' E 014°23'1 1.4
2020-Jul-04 02:00N 67°17' E 014°20'45 9.9
2020-Jul-03 21:30N 66°53' E 012°43'5 9.6
2020-Jul-03 21:00N 66°50' E 012°33'27 9.1
2020-Jul-03 18:00N 66°30' E 011°46'15 9.8
2020-Jul-03 16:30N 66°30' E 011°09'5 9.7
2020-Jul-03 16:00N 66°30' E 010°57'5 9.8
2020-Jul-03 15:30N 66°29' E 010°44'10 9.9
2020-Jul-03 14:30N 66°29' E 010°20'5 9.9
2020-Jul-03 14:00N 66°29' E 010°07'5 9.7
2020-Jul-03 13:30N 66°29' E 009°55'169 5.5
2020-Jul-02 06:30N 63°54' E 007°12'24 9.7
2020-Jul-02 04:00N 63°30' E 007°21'5 9.6
2020-Jul-02 03:30N 63°26' E 007°22'6 6.4
2020-Jul-02 02:30N 63°20' E 007°27'1 1.4
2020-Jul-02 01:30N 63°21' E 007°27'9 4.4
2020-Jul-01 23:30N 63°15' E 007°12'25 5.0
2020-Jul-01 18:30N 62°53' E 006°45'14 5.5
2020-Jul-01 16:00N 62°42' E 006°29'24 9.6
2020-Jul-01 13:30N 62°25' E 005°52'58 7.3
2020-Jul-01 05:30N 61°32' E 005°00'13 8.6
2020-Jul-01 04:00N 61°20' E 005°04'9 6.2
2020-Jul-01 02:30N 61°10' E 005°03'18 7.2
2020-Jul-01 00:00N 60°54' E 004°46'20 8.2
2020-Jun-30 21:30N 60°34' E 004°55'14 4.6
2020-Jun-30 18:29N 60°24' E 005°14'0 0.0
2020-Jun-30 17:59N 60°24' E 005°14'0 0.0
2020-Jun-30 17:29N 60°24' E 005°14'0 0.4
2020-Jun-30 16:28N 60°24' E 005°14'2 2.3
2020-Jun-30 15:29N 60°24' E 005°19'0 0.0
2020-Jun-30 14:29N 60°24' E 005°19'0 0.0
2020-Jun-30 13:29N 60°24' E 005°19'0 0.0
2020-Jun-30 11:59N 60°24' E 005°19'0 0.0
2020-Jun-30 07:29N 60°24' E 005°19'0 0.0
2020-Jun-30 06:29N 60°24' E 005°19'0 0.0
2020-Jun-30 03:29N 60°24' E 005°19'0 0.0
2020-Jun-30 02:29N 60°24' E 005°19'0 0.0
2020-Jun-30 00:29N 60°24' E 005°19'0 0.0
2020-Jun-29 22:59N 60°24' E 005°19'0 0.0
2020-Jun-29 22:29N 60°24' E 005°19'0 0.0
2020-Jun-29 21:29N 60°24' E 005°19'0 0.0
2020-Jun-29 16:29N 60°24' E 005°19'0 0.0
2020-Jun-29 15:59N 60°24' E 005°19'0 0.0
2020-Jun-29 14:00N 60°24' E 005°19'0 0.0
2020-Jun-29 13:30N 60°24' E 005°19'0 0.0
2020-Jun-29 07:00N 60°24' E 005°19'0 0.0
2020-Jun-29 05:30N 60°24' E 005°19'0 0.0
2020-Jun-29 04:30N 60°24' E 005°19'0 0.0
2020-Jun-29 00:30N 60°24' E 005°19'0 0.0
2020-Jun-28 23:30N 60°24' E 005°19'0 0.0
2020-Jun-28 22:30N 60°24' E 005°19'0 0.0
2020-Jun-28 22:00N 60°24' E 005°19'0 0.0
2020-Jun-28 21:30N 60°24' E 005°19'0 0.0
2020-Jun-28 18:30N 60°24' E 005°19'0 0.0
2020-Jun-28 14:30N 60°24' E 005°19'0 0.0
2020-Jun-28 13:30N 60°24' E 005°19'8 5.3
2020-Jun-28 12:00N 60°17' E 005°11'27 6.0
2020-Jun-28 07:30N 60°12' E 006°04'22 8.8
2020-Jun-28 04:59N 60°24' E 006°41'20 8.1
2020-Jun-28 02:30N 60°05' E 006°33'0 0.4
2020-Jun-28 01:30N 60°04' E 006°33'0 0.0
2020-Jun-27 23:00N 60°04' E 006°33'0 0.0
2020-Jun-27 22:30N 60°04' E 006°33'0 0.0
2020-Jun-27 19:30N 60°04' E 006°33'0 0.0
2020-Jun-27 19:00N 60°04' E 006°33'0 0.0
2020-Jun-27 16:30N 60°04' E 006°33'0 0.0
2020-Jun-27 14:00N 60°04' E 006°33'0 0.0
2020-Jun-27 13:30N 60°04' E 006°33'27 6.8
2020-Jun-27 09:29N 60°29' E 006°57'12 8.4
2020-Jun-27 08:00N 60°27' E 006°32'5 9.0
2020-Jun-27 07:30N 60°24' E 006°27'7 4.5
2020-Jun-27 06:00N 60°19' E 006°17'25 7.0
2020-Jun-27 02:29N 59°58' E 005°50'0 0.8
2020-Jun-27 01:53N 59°58' E 005°51'2 1.8
2020-Jun-27 01:00N 59°57' E 005°48'10 4.9
2020-Jun-26 23:00N 59°56' E 005°29'19 9.7
2020-Jun-26 21:00N 60°13' E 005°11'5 9.0
2020-Jun-26 20:30N 60°17' E 005°11'14 9.3
2020-Jun-26 19:00N 60°30' E 004°59'  
Track history (hours):
 
Tides and Currents Weather Stations Pressure Air Temp Water Temp Dewpoint Dewpoint Depression Visibility Wind Speed Wind Dir Waves Ship Positions

Oceanographic research ship Hakon Mosby (Norway)

Detailed information on ship capabilities available from University of Delaware's Ocean Information Center and ARCUS's ALIAS (Arctic Logistics Information and Support) project.

Last reported at 2020-Jul-06 18:38 UTC. Time now 2020-Jul-07 15:05 UTC.
Position N 71°01' E 017°04'.

Type: Fishing. MMSI: 258244000.

Date/timePositionNaut miles runAvg speedWind from/ knotsBaromVisibWave heightAir tempDewpointWater temp
2020-Jul-06 18:38N 71°01' E 017°04'54 2.0
2020-Jul-05 16:00N 70°08' E 016°30'5 9.8
2020-Jul-05 15:30N 70°04' E 016°36'27 9.0
2020-Jul-05 12:30N 69°37' E 016°48'2010.0
2020-Jul-05 10:30N 69°39' E 015°50'52 9.9
2020-Jul-05 05:15N 69°44' E 013°22'30 2.7
2020-Jul-04 18:04N 69°20' E 012°30'55 9.9
2020-Jul-04 12:30N 68°27' E 013°11'10 9.7
2020-Jul-04 11:30N 68°17' E 013°13'65 7.7
2020-Jul-04 03:00N 67°17' E 014°23'1 1.4
2020-Jul-04 02:00N 67°17' E 014°20'45 9.9
2020-Jul-03 21:30N 66°53' E 012°43'5 9.6
2020-Jul-03 21:00N 66°50' E 012°33'27 9.1
2020-Jul-03 18:00N 66°30' E 011°46'15 9.8
2020-Jul-03 16:30N 66°30' E 011°09'5 9.7
2020-Jul-03 16:00N 66°30' E 010°57'5 9.8
2020-Jul-03 15:30N 66°29' E 010°44'10 9.9
2020-Jul-03 14:30N 66°29' E 010°20'5 9.9
2020-Jul-03 14:00N 66°29' E 010°07'5 9.7
2020-Jul-03 13:30N 66°29' E 009°55'169 5.5
2020-Jul-02 06:30N 63°54' E 007°12'24 9.7
2020-Jul-02 04:00N 63°30' E 007°21'5 9.6
2020-Jul-02 03:30N 63°26' E 007°22'6 6.4
2020-Jul-02 02:30N 63°20' E 007°27'1 1.4
2020-Jul-02 01:30N 63°21' E 007°27'9 4.4
2020-Jul-01 23:30N 63°15' E 007°12'25 5.0
2020-Jul-01 18:30N 62°53' E 006°45'14 5.5
2020-Jul-01 16:00N 62°42' E 006°29'24 9.6
2020-Jul-01 13:30N 62°25' E 005°52'58 7.3
2020-Jul-01 05:30N 61°32' E 005°00'13 8.6
2020-Jul-01 04:00N 61°20' E 005°04'9 6.2
2020-Jul-01 02:30N 61°10' E 005°03'18 7.2
2020-Jul-01 00:00N 60°54' E 004°46'20 8.2
2020-Jun-30 21:30N 60°34' E 004°55'14 4.6
2020-Jun-30 18:29N 60°24' E 005°14'0 0.0
2020-Jun-30 17:59N 60°24' E 005°14'0 0.0
2020-Jun-30 17:29N 60°24' E 005°14'0 0.4
2020-Jun-30 16:28N 60°24' E 005°14'2 2.3
2020-Jun-30 15:29N 60°24' E 005°19'0 0.0
2020-Jun-30 14:29N 60°24' E 005°19'0 0.0
2020-Jun-30 13:29N 60°24' E 005°19'0 0.0
2020-Jun-30 11:59N 60°24' E 005°19'0 0.0
2020-Jun-30 07:29N 60°24' E 005°19'0 0.0
2020-Jun-30 06:29N 60°24' E 005°19'0 0.0
2020-Jun-30 03:29N 60°24' E 005°19'0 0.0
2020-Jun-30 02:29N 60°24' E 005°19'0 0.0
2020-Jun-30 00:29N 60°24' E 005°19'0 0.0
2020-Jun-29 22:59N 60°24' E 005°19'0 0.0
2020-Jun-29 22:29N 60°24' E 005°19'0 0.0
2020-Jun-29 21:29N 60°24' E 005°19'0 0.0
2020-Jun-29 16:29N 60°24' E 005°19'0 0.0
2020-Jun-29 15:59N 60°24' E 005°19'0 0.0
2020-Jun-29 14:00N 60°24' E 005°19'0 0.0
2020-Jun-29 13:30N 60°24' E 005°19'0 0.0
2020-Jun-29 07:00N 60°24' E 005°19'0 0.0
2020-Jun-29 05:30N 60°24' E 005°19'0 0.0
2020-Jun-29 04:30N 60°24' E 005°19'0 0.0
2020-Jun-29 00:30N 60°24' E 005°19'0 0.0
2020-Jun-28 23:30N 60°24' E 005°19'0 0.0
2020-Jun-28 22:30N 60°24' E 005°19'0 0.0
2020-Jun-28 22:00N 60°24' E 005°19'0 0.0
2020-Jun-28 21:30N 60°24' E 005°19'0 0.0
2020-Jun-28 18:30N 60°24' E 005°19'0 0.0
2020-Jun-28 14:30N 60°24' E 005°19'0 0.0
2020-Jun-28 13:30N 60°24' E 005°19'8 5.3
2020-Jun-28 12:00N 60°17' E 005°11'27 6.0
2020-Jun-28 07:30N 60°12' E 006°04'22 8.8
2020-Jun-28 04:59N 60°24' E 006°41'20 8.1
2020-Jun-28 02:30N 60°05' E 006°33'0 0.4
2020-Jun-28 01:30N 60°04' E 006°33'0 0.0
2020-Jun-27 23:00N 60°04' E 006°33'0 0.0
2020-Jun-27 22:30N 60°04' E 006°33'0 0.0
2020-Jun-27 19:30N 60°04' E 006°33'0 0.0
2020-Jun-27 19:00N 60°04' E 006°33'0 0.0
2020-Jun-27 16:30N 60°04' E 006°33'0 0.0
2020-Jun-27 14:00N 60°04' E 006°33'0 0.0
2020-Jun-27 13:30N 60°04' E 006°33'27 6.8
2020-Jun-27 09:29N 60°29' E 006°57'12 8.4
2020-Jun-27 08:00N 60°27' E 006°32'5 9.0
2020-Jun-27 07:30N 60°24' E 006°27'7 4.5
2020-Jun-27 06:00N 60°19' E 006°17'25 7.0
2020-Jun-27 02:29N 59°58' E 005°50'0 0.8
2020-Jun-27 01:53N 59°58' E 005°51'2 1.8
2020-Jun-27 01:00N 59°57' E 005°48'10 4.9
2020-Jun-26 23:00N 59°56' E 005°29'19 9.7
2020-Jun-26 21:00N 60°13' E 005°11'5 9.0
2020-Jun-26 20:30N 60°17' E 005°11'14 9.3
2020-Jun-26 19:00N 60°30' E 004°59'  

Dump ship's entire track history